createdAt,value
2022-11-25T00:02:14.067Z,83.50
2022-11-25T00:04:45.175Z,87.10
2022-11-25T00:07:16.040Z,81.20
2022-11-25T00:09:46.859Z,86.90
2022-11-25T00:12:17.746Z,90.30
2022-11-25T00:14:49.149Z,86.80
2022-11-25T00:17:19.978Z,87.60
2022-11-25T00:19:51.093Z,88.40
2022-11-25T00:22:22.236Z,81.60
2022-11-25T00:24:53.015Z,88.50
2022-11-25T00:27:23.839Z,87.90
2022-11-25T00:29:54.678Z,82.20
2022-11-25T00:32:25.607Z,74.00
2022-11-25T00:34:56.407Z,80.50
2022-11-25T00:37:27.269Z,80.90
2022-11-25T00:39:58.124Z,83.80
2022-11-25T00:42:46.776Z,84.90
2022-11-25T00:45:17.790Z,88.40
2022-11-25T00:47:49.093Z,86.00
2022-11-25T00:50:22.423Z,85.40
2022-11-25T00:52:53.155Z,83.40
2022-11-25T00:55:23.926Z,93.20
2022-11-25T00:57:54.761Z,87.50
2022-11-25T01:00:25.637Z,83.00
2022-11-25T01:02:56.416Z,86.70
2022-11-25T01:05:27.185Z,95.00
2022-11-25T01:07:58.774Z,94.60
2022-11-25T01:10:29.507Z,80.80
2022-11-25T01:13:00.398Z,96.60
2022-11-25T01:15:31.197Z,93.20
2022-11-25T01:18:01.988Z,100.60
2022-11-25T01:20:32.785Z,114.80
2022-11-25T01:23:03.577Z,115.60
2022-11-25T01:25:37.718Z,104.20
2022-11-25T01:28:09.018Z,85.50
2022-11-25T01:30:41.310Z,106.80
2022-11-25T01:33:12.371Z,90.90
2022-11-25T01:35:43.127Z,96.50
2022-11-25T01:38:13.896Z,99.40
2022-11-25T01:40:44.848Z,96.90
2022-11-25T01:43:17.406Z,94.00
2022-11-25T01:45:48.624Z,88.00
2022-11-25T01:48:23.327Z,88.90
2022-11-25T01:50:55.670Z,91.10
2022-11-25T01:53:26.722Z,101.70
2022-11-25T01:56:02.271Z,109.60
2022-11-25T01:58:38.420Z,104.80
2022-11-25T02:01:10.269Z,97.40
2022-11-25T02:03:46.373Z,97.10
2022-11-25T02:06:22.704Z,98.00
2022-11-25T02:08:57.082Z,129.50
2022-11-25T02:11:31.981Z,125.90
2022-11-25T02:14:03.951Z,130.00
2022-11-25T02:16:35.004Z,126.90
2022-11-25T02:19:10.502Z,111.80
2022-11-25T02:21:46.945Z,94.20
2022-11-25T02:24:24.197Z,91.10
2022-11-25T02:26:55.388Z,90.30
2022-11-25T02:29:26.631Z,100.80
2022-11-25T02:31:57.777Z,99.60
2022-11-25T02:34:28.992Z,89.80
2022-11-25T02:37:00.296Z,91.40
2022-11-25T02:39:31.494Z,90.80
2022-11-25T02:42:02.755Z,98.00
2022-11-25T02:44:34.583Z,97.40
2022-11-25T02:47:05.682Z,103.80
2022-11-25T02:49:36.555Z,101.90
2022-11-25T03:02:59.835Z,96.90
2022-11-25T03:05:30.903Z,116.30
2022-11-25T03:08:03.851Z,100.90
2022-11-25T03:10:35.312Z,80.40
2022-11-25T03:13:08.367Z,84.20
2022-11-25T03:15:43.569Z,86.80
2022-11-25T03:18:14.369Z,82.30
2022-11-25T03:20:45.997Z,87.80
2022-11-25T03:23:16.851Z,87.60
2022-11-25T03:25:47.682Z,86.90
2022-11-25T03:28:18.720Z,96.50
2022-11-25T03:30:49.789Z,92.20
2022-11-25T03:33:20.701Z,80.30
2022-11-25T03:35:52.231Z,86.50
2022-11-25T03:38:24.380Z,84.80
2022-11-25T03:40:55.192Z,82.30
2022-11-25T03:43:26.187Z,87.60
2022-11-25T03:45:57.065Z,79.40
2022-11-25T03:48:28.551Z,87.20
2022-11-25T03:50:59.414Z,77.70
2022-11-25T03:53:31.169Z,89.80
2022-11-25T03:56:04.015Z,86.10
2022-11-25T03:58:34.954Z,84.90
2022-11-25T04:01:07.449Z,76.00
2022-11-25T04:03:38.389Z,89.10
2022-11-25T04:06:09.511Z,96.20
2022-11-25T04:08:40.486Z,79.50
2022-11-25T04:11:12.122Z,83.70
2022-11-25T04:13:46.115Z,78.60
2022-11-25T04:16:24.627Z,75.30
2022-11-25T04:18:55.918Z,81.60
2022-11-25T04:21:27.501Z,84.50
2022-11-25T04:23:58.301Z,84.20
2022-11-25T04:26:29.228Z,71.90
2022-11-25T04:29:00.061Z,76.30
2022-11-25T04:31:31.539Z,91.60
2022-11-25T04:34:02.958Z,82.40
2022-11-25T04:36:34.300Z,96.60
2022-11-25T04:39:05.811Z,102.40
2022-11-25T04:41:37.728Z,90.40
2022-11-25T04:44:08.683Z,78.30
2022-11-25T04:46:44.198Z,76.80
2022-11-25T04:49:15.222Z,84.60
2022-11-25T04:51:46.104Z,89.40
2022-11-25T04:54:17.747Z,73.00
2022-11-25T04:56:49.155Z,85.70
2022-11-25T04:59:38.460Z,73.40
2022-11-25T05:02:13.441Z,78.20
2022-11-25T05:04:47.584Z,74.70
2022-11-25T05:07:24.106Z,87.80
2022-11-25T05:09:57.421Z,82.10
2022-11-25T05:12:41.298Z,81.10
2022-11-25T05:15:16.613Z,81.80
2022-11-25T05:17:49.821Z,84.10
2022-11-25T05:20:24.369Z,73.70
2022-11-25T05:22:55.274Z,83.10
2022-11-25T05:25:27.483Z,73.90
2022-11-25T05:28:26.626Z,70.20
2022-11-25T05:30:57.919Z,65.10
2022-11-25T05:33:29.251Z,74.40
2022-11-25T05:36:02.628Z,77.40
2022-11-25T05:38:45.670Z,75.70
2022-11-25T05:41:20.329Z,79.00
2022-11-25T05:43:51.823Z,70.10
2022-11-25T05:46:22.937Z,80.80
2022-11-25T05:48:57.630Z,78.00
2022-11-25T05:51:30.702Z,73.00
2022-11-25T05:54:03.559Z,71.80
2022-11-25T05:56:34.827Z,75.90
2022-11-25T05:59:24.539Z,69.10
2022-11-25T06:02:15.622Z,77.20
2022-11-25T06:04:46.669Z,74.50
2022-11-25T06:07:17.597Z,70.80
2022-11-25T06:09:49.327Z,67.60
2022-11-25T06:12:21.955Z,65.50
2022-11-25T06:14:53.732Z,70.60
2022-11-25T06:17:24.539Z,64.60
2022-11-25T06:20:03.490Z,62.90
2022-11-25T06:22:34.820Z,70.90
2022-11-25T06:25:06.348Z,62.50
2022-11-25T06:27:57.280Z,70.90
2022-11-25T06:30:29.203Z,71.30
2022-11-25T06:33:18.436Z,67.60
2022-11-25T06:35:52.293Z,68.90
2022-11-25T06:38:23.148Z,55.80
2022-11-25T06:40:56.434Z,58.90
2022-11-25T06:43:30.976Z,66.60
2022-11-25T06:46:07.761Z,67.40
2022-11-25T06:48:39.525Z,65.50
2022-11-25T06:51:13.435Z,67.90
2022-11-25T06:53:44.528Z,59.40
2022-11-25T06:56:18.338Z,72.00
2022-11-25T06:58:50.354Z,67.40
2022-11-25T07:01:23.927Z,77.50
2022-11-25T07:03:57.577Z,70.10
2022-11-25T07:06:28.954Z,61.70
2022-11-25T07:09:00.489Z,75.70
2022-11-25T07:11:33.224Z,75.80
2022-11-25T07:14:06.786Z,68.10
2022-11-25T07:16:38.707Z,73.80
2022-11-25T07:19:11.302Z,72.00
2022-11-25T07:21:43.507Z,75.30
2022-11-25T07:24:16.564Z,74.60
2022-11-25T07:26:48.411Z,79.80
2022-11-25T07:32:13.304Z,71.80
2022-11-25T07:34:44.500Z,77.80
2022-11-25T07:37:15.910Z,86.60
2022-11-25T07:39:46.761Z,82.80
2022-11-25T07:42:17.889Z,79.10
2022-11-25T07:44:49.821Z,83.30
2022-11-25T07:47:44.857Z,92.70
2022-11-25T07:50:16.351Z,78.50
2022-11-25T07:52:50.505Z,85.40
2022-11-25T07:55:21.591Z,85.40
2022-11-25T07:57:52.490Z,79.80
2022-11-25T08:00:24.711Z,85.40
2022-11-25T08:02:57.004Z,85.90
2022-11-25T08:05:27.885Z,95.70
2022-11-25T08:07:58.882Z,93.80
2022-11-25T08:10:29.842Z,105.20
2022-11-25T08:13:00.802Z,89.40
2022-11-25T08:15:33.249Z,88.60
2022-11-25T08:18:04.173Z,86.00
2022-11-25T08:20:35.091Z,99.10
2022-11-25T08:23:05.909Z,87.70
2022-11-25T08:25:47.437Z,80.80
2022-11-25T08:28:21.400Z,104.30
2022-11-25T08:30:52.616Z,86.70
2022-11-25T08:33:24.000Z,80.20
2022-11-25T08:35:57.308Z,88.40
2022-11-25T08:38:29.189Z,85.60
2022-11-25T08:41:00.612Z,88.80
2022-11-25T08:43:31.847Z,78.90
2022-11-25T08:46:02.798Z,82.50
2022-11-25T08:48:34.165Z,90.50
2022-11-25T08:51:08.073Z,85.20
2022-11-25T08:53:39.566Z,87.80
2022-11-25T08:56:11.476Z,82.10
2022-11-25T08:58:42.941Z,83.60
2022-11-25T09:01:14.231Z,94.90
2022-11-25T09:03:47.839Z,93.50
2022-11-25T09:06:20.282Z,83.10
2022-11-25T09:08:51.241Z,90.80
2022-11-25T09:11:22.274Z,79.60
2022-11-25T09:13:53.336Z,93.40
2022-11-25T09:16:26.832Z,93.30
2022-11-25T09:19:00.145Z,96.40
2022-11-25T09:21:30.970Z,82.40
2022-11-25T09:24:02.443Z,95.30
2022-11-25T09:26:35.854Z,86.40
2022-11-25T09:29:10.087Z,93.40
2022-11-25T09:31:42.124Z,90.10
2022-11-25T09:34:13.239Z,90.30
2022-11-25T09:36:46.416Z,84.10
2022-11-25T09:39:17.279Z,90.40
2022-11-25T09:42:19.594Z,86.80
2022-11-25T09:45:21.877Z,86.70
2022-11-25T09:48:06.374Z,82.20
2022-11-25T09:50:48.807Z,89.60
2022-11-25T09:53:32.312Z,82.40
2022-11-25T09:56:09.701Z,87.40
2022-11-25T09:58:48.000Z,66.70
2022-11-25T10:01:24.089Z,80.80
2022-11-25T10:03:58.897Z,79.50
2022-11-25T10:06:33.494Z,80.10
2022-11-25T10:09:12.761Z,98.50
2022-11-25T10:11:52.057Z,81.10
2022-11-25T10:14:31.290Z,82.00
2022-11-25T10:17:12.771Z,70.70
2022-11-25T10:19:55.328Z,79.60
2022-11-25T10:22:30.994Z,74.90
2022-11-25T10:25:04.816Z,77.00
2022-11-25T10:27:54.272Z,73.20
2022-11-25T10:30:27.154Z,77.00
2022-11-25T10:33:07.672Z,78.70
2022-11-25T10:35:42.654Z,78.70
2022-11-25T10:38:21.109Z,78.20
2022-11-25T10:40:53.732Z,78.80
2022-11-25T10:43:28.701Z,84.60
2022-11-25T10:46:15.898Z,77.10
2022-11-25T10:49:01.051Z,78.50
2022-11-25T10:51:44.684Z,80.60
2022-11-25T10:54:27.218Z,89.00
2022-11-25T10:57:00.818Z,93.30
2022-11-25T10:59:37.785Z,88.90
2022-11-25T11:02:22.412Z,85.60
2022-11-25T11:05:00.493Z,78.10
2022-11-25T11:07:37.361Z,77.90
2022-11-25T11:10:19.075Z,108.00
2022-11-25T11:13:10.970Z,77.90
2022-11-25T11:15:49.568Z,73.00
2022-11-25T11:18:28.687Z,98.10
2022-11-25T11:21:01.719Z,80.40
2022-11-25T11:23:32.666Z,74.60
2022-11-25T11:26:06.393Z,82.80
2022-11-25T11:28:43.471Z,74.30
2022-11-25T11:31:25.237Z,83.10
2022-11-25T11:34:04.871Z,79.80
2022-11-25T11:36:49.697Z,76.50
2022-11-25T11:40:00.293Z,76.00
2022-11-25T11:42:41.568Z,64.50
2022-11-25T11:45:30.765Z,69.00
2022-11-25T11:48:12.450Z,83.90
2022-11-25T11:50:49.511Z,78.90
2022-11-25T11:53:31.598Z,60.60
2022-11-25T11:59:42.676Z,55.20
2022-11-25T12:02:32.735Z,63.90
2022-11-25T12:05:17.068Z,65.10
2022-11-25T12:07:56.097Z,69.80
2022-11-25T12:10:50.424Z,63.70
2022-11-25T12:13:24.439Z,68.00
2022-11-25T12:16:00.133Z,68.90
2022-11-25T12:18:53.931Z,67.00
2022-11-25T12:21:45.392Z,62.90
2022-11-25T12:24:27.320Z,69.10
2022-11-25T12:27:03.761Z,66.50
2022-11-25T12:29:41.052Z,62.10
2022-11-25T12:32:41.541Z,66.10
2022-11-25T12:35:25.389Z,71.00
2022-11-25T12:38:04.072Z,65.50
2022-11-25T12:40:43.756Z,80.00
2022-11-25T12:43:27.289Z,68.90
2022-11-25T12:46:09.185Z,67.50
2022-11-25T12:48:43.172Z,75.80
2022-11-25T12:51:25.847Z,72.60
2022-11-25T12:54:07.087Z,81.00
2022-11-25T12:56:53.672Z,63.50
2022-11-25T12:59:44.717Z,67.90
2022-11-25T13:02:37.053Z,71.40
2022-11-25T13:05:40.427Z,70.50
2022-11-25T13:08:25.429Z,57.70
2022-11-25T13:11:24.132Z,85.60
2022-11-25T13:14:02.087Z,82.40
2022-11-25T13:16:34.964Z,90.50
2022-11-25T13:19:12.602Z,75.20
2022-11-25T13:22:07.660Z,94.20
2022-11-25T13:24:43.540Z,75.30
2022-11-25T13:27:33.017Z,78.10
2022-11-25T13:30:05.385Z,101.60
2022-11-25T13:32:43.036Z,87.30
2022-11-25T13:35:38.158Z,81.70
2022-11-25T13:38:48.492Z,75.40
2022-11-25T13:41:42.085Z,86.40
2022-11-25T13:44:32.299Z,87.10
2022-11-25T13:47:36.453Z,86.50
2022-11-25T13:50:22.756Z,78.30
2022-11-25T13:53:01.803Z,85.30
2022-11-25T13:55:42.662Z,92.60
2022-11-25T13:58:27.282Z,77.50
2022-11-25T14:01:29.397Z,81.20
2022-11-25T14:04:06.638Z,90.00
2022-11-25T14:07:17.031Z,81.10
2022-11-25T14:10:10.741Z,81.10
2022-11-25T14:12:54.747Z,76.10
2022-11-25T14:15:42.069Z,87.60
2022-11-25T14:19:17.319Z,85.80
2022-11-25T14:21:51.703Z,72.70
2022-11-25T14:24:38.390Z,76.80
2022-11-25T14:27:21.859Z,76.90
2022-11-25T14:29:57.866Z,75.70
2022-11-25T14:32:35.391Z,75.70
2022-11-25T14:35:10.340Z,72.90
2022-11-25T14:37:46.977Z,72.20
2022-11-25T14:40:23.091Z,77.60
2022-11-25T14:42:59.592Z,69.70
2022-11-25T14:45:33.555Z,75.30
2022-11-25T14:48:18.332Z,74.60
2022-11-25T14:51:00.860Z,71.40
2022-11-25T14:53:43.009Z,69.00
2022-11-25T14:56:23.183Z,69.50
2022-11-25T14:58:57.016Z,64.90
2022-11-25T15:01:30.030Z,71.70
2022-11-25T15:04:21.252Z,73.90
2022-11-25T15:06:53.990Z,83.00
2022-11-25T15:09:32.593Z,70.10
2022-11-25T15:12:06.903Z,75.90
2022-11-25T15:14:42.892Z,71.20
2022-11-25T15:17:31.033Z,69.10
2022-11-25T15:20:12.660Z,78.40
2022-11-25T15:22:58.345Z,75.30
2022-11-25T15:28:37.232Z,65.70
2022-11-25T15:31:33.189Z,70.60
2022-11-25T15:34:25.787Z,76.70
2022-11-25T15:37:10.397Z,67.60
2022-11-25T15:40:25.447Z,81.50
2022-11-25T15:42:57.648Z,71.50
2022-11-25T15:45:38.218Z,76.90
2022-11-25T15:48:17.971Z,81.10
2022-11-25T15:51:21.215Z,79.20
2022-11-25T15:53:57.889Z,73.20
2022-11-25T15:56:30.160Z,80.00
2022-11-25T15:59:02.343Z,74.50
2022-11-25T16:01:42.837Z,75.40
2022-11-25T16:04:21.556Z,74.00
2022-11-25T16:06:57.825Z,78.80
2022-11-25T16:09:33.483Z,80.50
2022-11-25T16:12:19.879Z,83.80
2022-11-25T16:14:51.029Z,86.70
2022-11-25T16:17:22.239Z,71.70
2022-11-25T16:19:53.320Z,73.20
2022-11-25T16:22:24.627Z,78.50
2022-11-25T16:25:02.132Z,83.80
2022-11-25T16:27:38.525Z,71.70
2022-11-25T16:30:20.954Z,79.50
2022-11-25T16:32:51.965Z,73.50
2022-11-25T16:35:23.722Z,69.30
2022-11-25T16:38:00.255Z,75.90
2022-11-25T16:40:31.569Z,80.80
2022-11-25T16:43:03.774Z,78.00
2022-11-25T16:45:35.055Z,82.20
2022-11-25T16:48:17.418Z,87.30
2022-11-25T16:50:49.400Z,83.50
2022-11-25T16:53:20.914Z,78.70
2022-11-25T16:55:52.286Z,73.20
2022-11-25T16:58:25.347Z,82.70
2022-11-25T17:00:57.709Z,81.20
2022-11-25T17:03:28.851Z,88.20
2022-11-25T17:06:00.091Z,78.30
2022-11-25T17:08:31.504Z,82.70
2022-11-25T17:11:03.219Z,73.10
2022-11-25T17:13:34.482Z,82.20
2022-11-25T17:16:06.772Z,82.40
2022-11-25T17:18:38.839Z,83.60
2022-11-25T17:21:12.804Z,82.20
2022-11-25T17:23:44.568Z,73.70
2022-11-25T17:26:20.249Z,85.10
2022-11-25T17:28:55.973Z,86.50
2022-11-25T17:31:30.234Z,84.90
2022-11-25T17:34:03.932Z,73.50
2022-11-25T17:36:35.116Z,90.00
2022-11-25T17:39:06.206Z,89.30
2022-11-25T17:41:47.166Z,104.20
2022-11-25T17:44:26.651Z,90.10
2022-11-25T17:47:00.201Z,79.80
2022-11-25T17:49:31.288Z,80.30
2022-11-25T17:52:02.483Z,87.60
2022-11-25T17:54:33.511Z,76.10
2022-11-25T17:57:05.370Z,100.10
2022-11-25T17:59:37.676Z,91.30
2022-11-25T18:02:19.817Z,94.10
2022-11-25T18:04:51.228Z,82.60
2022-11-25T18:07:22.643Z,83.90
2022-11-25T18:09:54.046Z,82.50
2022-11-25T18:12:29.257Z,85.10
2022-11-25T18:17:30.085Z,84.40
2022-11-25T18:20:04.189Z,97.90
2022-11-25T18:22:35.084Z,102.00
2022-11-25T18:25:09.502Z,93.30
2022-11-25T18:27:40.945Z,85.30
2022-11-25T18:30:20.152Z,82.40
2022-11-25T18:32:51.669Z,91.40
2022-11-25T18:35:25.355Z,76.80
2022-11-25T18:37:57.040Z,87.40
2022-11-25T18:40:30.186Z,91.60
2022-11-25T18:43:04.079Z,93.30
2022-11-25T18:45:39.076Z,106.00
2022-11-25T18:48:16.964Z,89.90
2022-11-25T18:50:49.952Z,108.70
2022-11-25T18:53:21.116Z,102.20
2022-11-25T18:55:52.575Z,109.20
2022-11-25T18:58:54.941Z,88.00
2022-11-25T19:01:49.450Z,99.50
2022-11-25T19:04:21.313Z,106.00
2022-11-25T19:06:52.534Z,95.90
2022-11-25T19:09:24.936Z,88.10
2022-11-25T19:11:59.200Z,108.60
2022-11-25T19:14:35.125Z,95.70
2022-11-25T19:17:19.603Z,106.90
2022-11-25T19:19:52.722Z,88.20
2022-11-25T19:22:24.815Z,114.80
2022-11-25T19:24:59.330Z,107.30
2022-11-25T19:27:33.572Z,112.70
2022-11-25T19:30:07.293Z,112.60
2022-11-25T19:32:38.800Z,116.90
2022-11-25T19:35:15.731Z,108.10
2022-11-25T19:37:54.389Z,115.30
2022-11-25T19:40:25.912Z,105.50
2022-11-25T19:42:57.292Z,108.00
2022-11-25T19:45:31.989Z,112.00
2022-11-25T19:48:08.005Z,108.00
2022-11-25T19:50:42.124Z,114.10
2022-11-25T19:53:18.369Z,120.50
2022-11-25T19:55:49.948Z,131.10
2022-11-25T19:58:22.098Z,127.00
2022-11-25T20:01:06.499Z,131.10
2022-11-25T20:03:47.812Z,120.30
2022-11-25T20:06:22.249Z,127.90
2022-11-25T20:09:04.855Z,115.80
2022-11-25T20:11:40.955Z,119.00
2022-11-25T20:14:12.452Z,113.50
2022-11-25T20:16:46.215Z,141.30
2022-11-25T20:19:20.670Z,112.00
2022-11-25T20:21:53.777Z,110.10
2022-11-25T20:24:26.721Z,124.90
2022-11-25T20:27:00.335Z,130.70
2022-11-25T20:29:31.274Z,124.90
2022-11-25T20:32:09.990Z,134.20
2022-11-25T20:34:42.432Z,128.20
2022-11-25T20:37:16.245Z,136.60
2022-11-25T20:39:48.864Z,127.40
2022-11-25T20:42:21.591Z,132.40
2022-11-25T20:44:57.842Z,131.30
2022-11-25T20:47:30.286Z,115.60
2022-11-25T20:50:01.582Z,106.00
2022-11-25T20:52:35.122Z,125.90
2022-11-25T20:55:16.627Z,129.70
2022-11-25T20:57:48.634Z,123.30
2022-11-25T21:00:23.075Z,132.70
2022-11-25T21:02:55.418Z,135.40
2022-11-25T21:05:27.631Z,130.20
2022-11-25T21:07:58.582Z,132.00
2022-11-25T21:10:34.780Z,132.20
2022-11-25T21:13:15.265Z,131.90
2022-11-25T21:15:46.583Z,130.50
2022-11-25T21:18:18.075Z,140.80
2022-11-25T21:20:49.842Z,141.40
2022-11-25T21:23:25.404Z,137.90
2022-11-25T21:26:05.183Z,130.00
2022-11-25T21:28:42.107Z,147.90
2022-11-25T21:31:17.806Z,142.70
2022-11-25T21:33:50.279Z,136.40
2022-11-25T21:36:24.965Z,134.70
2022-11-25T21:39:03.452Z,128.20
2022-11-25T21:41:34.832Z,144.20
2022-11-25T21:44:07.697Z,143.80
2022-11-25T21:46:39.138Z,133.60
2022-11-25T21:49:14.287Z,142.80
2022-11-25T21:51:45.370Z,129.40
2022-11-25T21:54:16.267Z,162.90
2022-11-25T21:56:47.667Z,124.40
2022-11-25T21:59:21.619Z,134.40
2022-11-25T22:01:53.108Z,144.60
2022-11-25T22:04:25.087Z,152.50
2022-11-25T22:06:56.317Z,150.80
2022-11-25T22:09:28.038Z,137.20
2022-11-25T22:11:59.474Z,144.50
2022-11-25T22:14:37.101Z,142.80
2022-11-25T22:17:14.628Z,138.20
2022-11-25T22:19:46.386Z,136.60
2022-11-25T22:22:18.108Z,153.40
2022-11-25T22:24:49.093Z,143.20
2022-11-25T22:27:23.713Z,139.10
2022-11-25T22:29:55.690Z,153.50
2022-11-25T22:32:28.320Z,139.90
2022-11-25T22:34:59.810Z,134.10
2022-11-25T22:37:33.821Z,144.10
2022-11-25T22:40:05.521Z,144.50
2022-11-25T22:42:36.941Z,142.20
2022-11-25T22:45:18.823Z,132.80
2022-11-25T22:47:50.364Z,132.80
2022-11-25T22:50:25.498Z,137.80
2022-11-25T22:55:29.473Z,138.50
2022-11-25T22:58:04.167Z,141.30
2022-11-25T23:00:40.996Z,136.90
2022-11-25T23:03:19.661Z,148.70
2022-11-25T23:05:52.479Z,139.40
2022-11-25T23:08:25.054Z,144.10
2022-11-25T23:10:57.085Z,146.50
2022-11-25T23:13:29.072Z,125.80
2022-11-25T23:16:02.177Z,145.20
2022-11-25T23:18:38.584Z,142.00
2022-11-25T23:21:18.168Z,145.40
2022-11-25T23:23:49.829Z,134.00
2022-11-25T23:29:09.525Z,137.30
2022-11-25T23:31:41.811Z,136.90
2022-11-25T23:34:14.771Z,136.50
2022-11-25T23:36:49.238Z,136.90
2022-11-25T23:39:23.468Z,136.60
2022-11-25T23:41:55.271Z,130.00
2022-11-25T23:44:28.856Z,140.30
2022-11-25T23:47:03.207Z,143.20
2022-11-25T23:49:38.162Z,141.60
2022-11-25T23:52:14.168Z,133.10
2022-11-25T23:54:47.653Z,127.50
2022-11-25T23:57:19.917Z,134.60
2022-11-25T23:59:51.692Z,143.00
